Time;durP1;ratioP1;P1;durP2;ratioP2;P2;SDS_P1;SDS_P2;PMS_P1;PMS_P2;Temp;Humidity;BMP_temperature;BMP_pressure;BME280_temperature;BME280_humidity;BME280_pressure;Samples;Min_cycle;Max_cycle;Signal;HPM_P1;HPM_P2
2021/04/11 00:00:17;;;;;;;30.42;27.38;;;;;;;10.35;74.23;100410.94;4821120;28;119935;-60
2021/04/11 00:02:43;;;;;;;32.60;29.30;;;;;;;10.34;73.81;100408.53;4822536;28;97913;-62
2021/04/11 00:05:11;;;;;;;30.67;27.48;;;;;;;10.34;73.91;100413.94;4821036;28;128813;-62
2021/04/11 00:07:37;;;;;;;30.75;27.50;;;;;;;10.33;73.89;100407.69;4821657;28;110388;-60
2021/04/11 00:10:15;;;;;;;30.15;27.02;;;;;;;10.34;73.80;100412.03;4821520;28;100691;-61
2021/04/11 00:12:41;;;;;;;29.80;26.80;;;;;;;10.31;73.89;100407.16;4848361;28;97747;-64
2021/04/11 00:15:08;;;;;;;30.80;27.65;;;;;;;10.31;74.38;100399.09;4919390;28;117447;-62
2021/04/11 00:17:35;;;;;;;31.20;28.05;;;;;;;10.35;74.29;100396.69;4919441;28;119966;-63
2021/04/11 00:20:01;;;;;;;31.33;27.92;;;;;;;10.31;73.68;100397.19;4918758;28;98004;-63
2021/04/11 00:22:27;;;;;;;29.85;26.80;;;;;;;10.31;73.60;100396.41;4921233;28;103556;-60
2021/04/11 00:24:53;;;;;;;30.80;27.70;;;;;;;10.28;73.85;100394.22;4923135;28;98353;-62
2021/04/11 00:27:19;;;;;;;31.48;28.20;;;;;;;10.29;74.23;100380.47;4914026;28;128439;-61
2021/04/11 00:29:45;;;;;;;30.73;27.60;;;;;;;10.29;74.61;100383.19;4922993;28;122989;-62
2021/04/11 00:32:13;;;;;;;30.98;27.67;;;;;;;10.30;74.03;100381.31;4923002;28;113237;-63
2021/04/11 00:34:39;;;;;;;31.45;28.17;;;;;;;10.25;74.09;100376.69;4840841;28;98918;-62
2021/04/11 00:37:05;;;;;;;31.42;28.20;;;;;;;10.28;74.09;100384.25;4823843;28;115475;-60
2021/04/11 00:39:31;;;;;;;31.55;28.33;;;;;;;10.28;74.67;100378.06;4824233;28;116006;-60
2021/04/11 00:42:00;;;;;;;31.35;28.15;;;;;;;10.27;74.16;100369.19;4806912;28;119678;-60
2021/04/11 00:44:26;;;;;;;30.38;27.33;;;;;;;10.27;74.19;100376.44;4807179;28;98139;-62
2021/04/11 00:46:56;;;;;;;30.58;27.48;;;;;;;10.24;74.47;100372.38;4821357;28;116183;-63
2021/04/11 00:49:38;;;;;;;31.15;27.95;;;;;;;10.25;74.27;100365.13;4806960;28;97975;-62
2021/04/11 00:52:07;;;;;;;31.90;28.53;;;;;;;10.24;74.25;100361.59;4808366;28;98286;-60
2021/04/11 00:54:33;;;;;;;31.30;28.10;;;;;;;10.22;74.30;100358.38;4867118;28;116898;-62
2021/04/11 00:57:01;;;;;;;31.17;28.08;;;;;;;10.22;74.98;100357.56;4922541;28;98447;-62
2021/04/11 00:59:27;;;;;;;31.83;28.42;;;;;;;10.22;74.15;100347.59;4922226;28;97863;-62
2021/04/11 01:01:53;;;;;;;30.70;27.60;;;;;;;10.20;74.14;100340.84;4905130;28;97812;-62
2021/04/11 01:04:19;;;;;;;31.60;28.23;;;;;;;10.22;74.30;100341.41;4923002;28;97836;-60
2021/04/11 01:06:50;;;;;;;30.80;27.63;;;;;;;10.21;74.50;100339.75;4936254;28;115831;-60
2021/04/11 01:09:32;;;;;;;31.25;28.05;;;;;;;10.19;74.32;100333.84;4903857;28;118350;-62
2021/04/11 01:12:00;;;;;;;30.30;27.27;;;;;;;10.21;74.15;100337.06;4921143;28;98110;-60
2021/04/11 01:14:28;;;;;;;31.45;28.15;;;;;;;10.18;74.80;100330.34;4901863;28;98906;-60
2021/04/11 01:16:54;;;;;;;31.02;27.80;;;;;;;10.18;74.98;100316.88;4822171;28;98620;-62
2021/04/11 01:19:27;;;;;;;31.05;27.88;;;;;;;10.20;74.46;100322.00;4837336;28;103373;-60
2021/04/11 01:22:05;;;;;;;30.75;27.45;;;;;;;10.18;74.05;100324.97;4822565;28;97938;-60
2021/04/11 01:24:48;;;;;;;31.40;28.13;;;;;;;10.17;74.66;100323.31;4842072;28;99836;-62
2021/04/11 01:27:19;;;;;;;;;;;;;;;10.17;74.12;100314.44;4921551;28;98492;-60
2021/04/11 01:29:45;;;;;;;30.42;27.13;;;;;;;10.15;75.06;100309.34;4916171;28;98587;-62
2021/04/11 01:32:12;;;;;;;31.00;27.80;;;;;;;10.16;74.31;100310.13;4918922;28;122090;-62
2021/04/11 01:34:39;;;;;;;31.88;28.48;;;;;;;10.16;75.01;100299.38;4840040;28;99147;-60
2021/04/11 01:37:06;;;;;;;31.65;28.35;;;;;;;10.15;74.30;100303.13;4823899;28;98686;-60
2021/04/11 01:39:35;;;;;;;31.98;28.65;;;;;;;10.16;74.10;100299.38;4821805;28;97855;-60
2021/04/11 01:42:01;;;;;;;30.98;27.73;;;;;;;10.15;74.90;100300.44;4884965;28;97837;-62
2021/04/11 01:44:32;;;;;;;31.55;28.15;;;;;;;10.15;74.33;100289.69;4919455;28;114598;-62
2021/04/11 01:46:58;;;;;;;31.45;28.15;;;;;;;10.17;74.29;100295.59;4921026;28;98808;-63
2021/04/11 01:49:25;;;;;;;32.58;29.25;;;;;;;10.14;74.68;100280.78;4851474;28;110329;-60
2021/04/11 01:52:11;;;;;;;31.63;28.35;;;;;;;10.13;75.01;100281.84;4806526;28;97956;-60
2021/04/11 01:54:37;;;;;;;32.45;28.52;;;;;;;10.15;74.42;100277.00;4822045;28;98236;-60
2021/04/11 01:57:16;;;;;;;31.58;28.27;;;;;;;10.12;75.06;100274.84;4805122;28;121299;-62
2021/04/11 01:59:42;;;;;;;31.95;28.48;;;;;;;10.15;74.38;100278.91;4822030;28;98070;-60
2021/04/11 02:02:08;;;;;;;32.35;28.85;;;;;;;10.15;74.81;100279.69;4832960;28;97938;-60
2021/04/11 02:04:35;;;;;;;31.75;28.45;;;;;;;10.13;74.65;100276.44;4919129;28;114808;-62
2021/04/11 02:07:02;;;;;;;31.23;27.90;;;;;;;10.13;74.36;100270.25;4922109;28;98587;-60
2021/04/11 02:09:34;;;;;;;30.77;27.60;;;;;;;10.12;74.77;100265.97;4919453;28;98077;-60
2021/04/11 02:12:00;;;;;;;30.63;27.40;;;;;;;10.12;74.68;100256.00;4903823;28;100120;-63
2021/04/11 02:14:27;;;;;;;31.80;28.50;;;;;;;10.14;74.56;100253.03;4935527;28;98598;-62
2021/04/11 02:16:55;;;;;;;31.75;28.33;;;;;;;10.11;74.44;100253.56;4935350;28;118435;-62
2021/04/11 02:19:26;;;;;;;31.80;28.40;;;;;;;10.11;74.36;100243.63;4935174;28;121990;-60
2021/04/11 02:22:16;;;;;;;32.17;28.77;;;;;;;10.11;75.10;100245.50;4919937;28;97793;-60
2021/04/11 02:24:42;;;;;;;31.65;28.30;;;;;;;10.09;74.89;100246.56;4802310;29;98875;-62
2021/04/11 02:27:10;;;;;;;31.75;28.30;;;;;;;10.11;74.58;100248.19;4803013;28;99198;-60
2021/04/11 02:29:36;;;;;;;32.28;28.77;;;;;;;10.09;74.91;100243.88;4912828;28;97944;-60
2021/04/11 02:32:04;;;;;;;31.75;28.35;;;;;;;10.08;75.18;100242.25;4918991;28;122257;-60
2021/04/11 02:34:31;;;;;;;31.40;28.15;;;;;;;10.07;74.14;100237.94;4903467;28;100991;-62
2021/04/11 02:37:23;;;;;;;31.63;28.33;;;;;;;10.03;74.83;100223.41;4903514;28;98668;-62
2021/04/11 02:39:49;;;;;;;31.70;28.23;;;;;;;10.03;75.30;100228.00;4921230;28;98060;-61
2021/04/11 02:42:21;;;;;;;32.30;28.80;;;;;;;10.03;74.77;100228.78;4918559;28;98051;-60
2021/04/11 02:44:49;;;;;;;33.75;28.42;;;;;;;10.00;75.58;100221.25;4840513;28;98614;-60
2021/04/11 02:47:15;;;;;;;32.55;29.15;;;;;;;10.00;75.67;100221.25;4822991;28;98781;-62
2021/04/11 02:49:43;;;;;;;33.38;29.45;;;;;;;10.00;75.08;100223.94;4836616;28;98516;-62
2021/04/11 02:52:22;;;;;;;33.08;29.17;;;;;;;10.00;75.13;100217.75;4821274;28;98028;-63
2021/04/11 02:54:48;;;;;;;34.45;28.90;;;;;;;10.00;75.49;100225.84;4806242;28;98071;-60
2021/04/11 02:57:14;;;;;;;34.60;30.13;;;;;;;9.97;75.31;100216.41;4821941;28;125272;-62
2021/04/11 02:59:40;;;;;;;32.67;29.20;;;;;;;9.98;75.72;100215.34;4804870;28;111440;-60
2021/04/11 03:02:06;;;;;;;36.30;30.33;;;;;;;9.98;75.04;100204.56;4837215;28;97840;-60
2021/04/11 03:04:32;;;;;;;33.60;29.95;;;;;;;9.97;75.44;100202.13;4869849;28;98294;-62
2021/04/11 03:07:02;;;;;;;33.72;30.10;;;;;;;9.97;75.71;100191.34;4919357;28;105962;-63
2021/04/11 03:09:50;;;;;;;33.00;29.42;;;;;;;9.93;75.46;100201.06;4902560;28;98116;-60
2021/04/11 03:12:17;;;;;;;34.08;30.48;;;;;;;9.95;75.23;100193.53;4918832;28;97691;-60
2021/04/11 03:14:43;;;;;;;34.45;29.75;;;;;;;9.94;75.36;100183.81;4902586;28;97994;-60
2021/04/11 03:17:13;;;;;;;34.67;29.67;;;;;;;9.93;75.58;100193.78;4901512;28;120743;-62
2021/04/11 03:20:15;;;;;;;33.70;30.02;;;;;;;9.89;75.39;100176.56;4919592;28;97945;-60
2021/04/11 03:22:41;;;;;;;35.38;29.83;;;;;;;9.90;75.03;100191.63;4905609;28;98077;-60
2021/04/11 03:25:09;;;;;;;33.05;29.55;;;;;;;9.89;75.38;100171.16;4885020;28;98608;-62
2021/04/11 03:28:16;;;;;;;34.00;30.15;;;;;;;9.88;75.30;100184.91;4820694;28;97855;-62
2021/04/11 03:31:04;;;;;;;33.35;29.80;;;;;;;9.88;75.53;100195.69;4822243;28;97924;-62
2021/04/11 03:33:33;;;;;;;33.78;29.30;;;;;;;9.88;75.07;100198.38;4820746;28;97734;-62
2021/04/11 03:35:59;;;;;;;32.85;29.40;;;;;;;9.86;75.14;100198.63;4805201;28;100488;-60
2021/04/11 03:38:27;;;;;;;33.78;30.08;;;;;;;9.88;75.46;100199.16;4819489;28;128053;-62
2021/04/11 03:40:55;;;;;;;33.70;30.13;;;;;;;9.87;75.86;100189.50;4811323;28;98503;-62
2021/04/11 03:43:40;;;;;;;34.63;30.50;;;;;;;9.86;75.59;100185.16;4805274;28;97869;-62
2021/04/11 03:46:32;;;;;;;31.75;28.52;;;;;;;9.84;75.43;100195.41;4856680;28;117000;-60
2021/04/11 03:49:07;;;;;;;32.87;29.03;;;;;;;9.85;75.32;100213.16;4902639;28;99179;-60
2021/04/11 03:51:37;;;;;;;35.92;30.25;;;;;;;9.83;75.32;100202.66;4918882;28;109764;-60
2021/04/11 03:54:08;;;;;;;33.05;29.55;;;;;;;9.84;75.41;100198.91;4902312;28;97762;-60
2021/04/11 03:56:40;;;;;;;33.42;29.55;;;;;;;9.84;75.32;100217.75;4933889;28;98653;-62
2021/04/11 03:59:06;;;;;;;35.10;29.25;;;;;;;9.87;75.27;100204.84;4921634;28;100190;-60
2021/04/11 04:02:02;;;;;;;33.70;29.38;;;;;;;9.84;75.14;100204.28;4920859;28;97898;-63
2021/04/11 04:04:28;;;;;;;32.25;28.27;;;;;;;9.83;75.16;100199.97;4903472;28;121851;-62
2021/04/11 04:07:12;;;;;;;34.92;29.02;;;;;;;9.82;75.06;100203.75;4856868;28;98734;-61
2021/04/11 04:09:38;;;;;;;34.13;29.65;;;;;;;9.84;75.07;100198.09;4824318;28;98276;-60
2021/04/11 04:12:19;;;;;;;32.83;29.15;;;;;;;9.84;74.99;100190.03;4824466;28;98020;-60
2021/04/11 04:15:08;;;;;;;32.65;29.13;;;;;;;9.85;75.53;100186.25;4824516;28;107700;-62
2021/04/11 04:18:28;;;;;;;33.55;29.75;;;;;;;9.81;75.14;100182.47;4823055;28;98262;-62
2021/04/11 04:21:17;;;;;;;34.20;29.33;;;;;;;9.83;75.49;100183.03;4824538;28;98249;-60
2021/04/11 04:24:01;;;;;;;35.35;29.48;;;;;;;9.81;75.15;100174.41;4824115;28;98175;-60
2021/04/11 04:26:39;;;;;;;34.38;29.80;;;;;;;9.84;75.87;100176.56;4845878;28;98049;-62
2021/04/11 04:29:25;;;;;;;33.10;29.50;;;;;;;9.83;75.30;100170.38;4922857;28;99068;-62
2021/04/11 04:32:07;;;;;;;34.03;29.55;;;;;;;9.84;75.24;100174.66;4937966;28;98251;-60
2021/04/11 04:35:10;;;;;;;33.80;30.03;;;;;;;9.82;75.40;100178.69;4936349;28;118937;-62
2021/04/11 04:38:03;;;;;;;33.78;29.75;;;;;;;9.87;75.28;100184.09;4921583;28;98174;-60
2021/04/11 04:40:46;;;;;;;;;;;;;;;9.82;75.45;100181.38;4836715;28;105701;-62
2021/04/11 04:43:47;;;;;;;35.00;28.93;;;;;;;9.83;75.75;100173.06;4823445;28;98340;-60
2021/04/11 04:46:56;;;;;;;35.10;29.67;;;;;;;9.86;75.30;100166.31;4863582;28;98430;-60
2021/04/11 04:49:50;;;;;;;35.60;29.10;;;;;;;9.89;74.79;100168.47;4805213;29;98024;-60
2021/04/11 04:52:25;;;;;;;33.38;29.20;;;;;;;9.92;75.28;100167.13;4814961;28;118957;-62
2021/04/11 04:55:00;;;;;;;34.05;29.25;;;;;;;9.97;75.00;100173.31;4822657;28;98371;-60
2021/04/11 04:57:40;;;;;;;34.95;30.35;;;;;;;10.00;74.67;100162.00;4822367;28;117557;-60
2021/04/11 05:00:14;;;;;;;33.60;28.95;;;;;;;10.05;74.23;100167.38;4821706;28;98024;-62
2021/04/11 05:03:16;;;;;;;34.63;30.17;;;;;;;10.11;74.43;100167.41;4822626;28;99434;-60
2021/04/11 05:05:54;;;;;;;33.80;29.33;;;;;;;10.15;73.92;100160.38;4837253;28;98809;-61
2021/04/11 05:08:24;;;;;;;32.17;28.77;;;;;;;10.19;74.71;100161.47;4851378;28;113327;-63
2021/04/11 05:11:12;;;;;;;31.75;28.35;;;;;;;10.20;74.48;100154.97;4806606;28;98102;-60
2021/04/11 05:13:44;;;;;;;32.25;28.77;;;;;;;10.27;74.58;100153.66;4809254;28;98256;-64
2021/04/11 05:16:16;;;;;;;33.75;29.20;;;;;;;10.27;74.09;100144.78;4807293;28;98602;-62
2021/04/11 05:18:57;;;;;;;32.03;28.50;;;;;;;10.31;74.03;100143.94;4806905;28;119131;-62
2021/04/11 05:21:28;;;;;;;32.22;28.77;;;;;;;10.33;74.15;100135.59;4808155;28;97907;-60
2021/04/11 05:24:01;;;;;;;32.72;28.50;;;;;;;10.38;74.25;100140.97;4808181;28;98699;-62
2021/04/11 05:26:38;;;;;;;32.47;29.00;;;;;;;10.44;73.12;100133.66;4807332;28;98409;-62
2021/04/11 05:29:16;;;;;;;32.13;28.13;;;;;;;10.55;73.12;100133.38;4814126;28;97849;-62
2021/04/11 05:31:42;;;;;;;32.80;27.98;;;;;;;10.64;73.08;100130.09;4807964;28;97736;-62
2021/04/11 05:34:10;;;;;;;32.25;28.85;;;;;;;10.71;72.74;100141.41;4855110;28;128127;-60
2021/04/11 05:36:52;;;;;;;32.10;28.58;;;;;;;10.79;72.63;100133.53;4922387;28;98519;-60
2021/04/11 05:39:52;;;;;;;30.95;27.55;;;;;;;10.96;71.75;100129.69;4910747;28;97874;-60
2021/04/11 05:43:06;;;;;;;30.45;27.17;;;;;;;11.07;71.93;100131.25;4905565;28;99715;-62
2021/04/11 05:45:43;;;;;;;31.52;28.13;;;;;;;11.19;71.67;100133.59;4925384;28;98797;-63
2021/04/11 05:48:41;;;;;;;31.25;27.77;;;;;;;11.14;72.44;100126.34;4935508;28;99017;-60
2021/04/11 05:51:23;;;;;;;32.05;28.48;;;;;;;11.17;72.39;100131.19;4844887;28;97992;-63
2021/04/11 05:53:56;;;;;;;31.33;27.97;;;;;;;11.20;72.10;100135.22;4843966;28;98283;-60
2021/04/11 05:56:25;;;;;;;31.95;28.52;;;;;;;11.13;72.76;100126.66;4825085;28;98535;-60
2021/04/11 05:59:20;;;;;;;32.20;28.80;;;;;;;11.06;73.10;100130.44;4824981;28;99141;-60
2021/04/11 06:01:59;;;;;;;33.83;28.98;;;;;;;11.07;73.15;100132.03;4806194;28;100734;-63
2021/04/11 06:04:50;;;;;;;32.97;28.33;;;;;;;11.09;73.04;100129.09;4843367;28;98266;-63
2021/04/11 06:07:29;;;;;;;33.95;28.92;;;;;;;11.11;72.78;100137.69;4826276;28;98474;-63
2021/04/11 06:10:12;;;;;;;31.98;27.63;;;;;;;11.25;72.60;100137.91;4826107;28;114163;-61
2021/04/11 06:12:51;;;;;;;30.45;27.15;;;;;;;11.64;71.16;100134.38;4804044;28;98181;-63
2021/04/11 06:15:41;;;;;;;31.35;27.50;;;;;;;12.12;69.38;100129.13;4840507;28;98379;-63
2021/04/11 06:18:08;;;;;;;29.60;26.33;;;;;;;12.36;68.54;100121.03;4803313;28;98751;-63
2021/04/11 06:20:34;;;;;;;29.00;25.92;;;;;;;12.58;68.34;100128.63;4858198;28;98342;-63
2021/04/11 06:23:29;;;;;;;29.92;26.70;;;;;;;12.84;67.29;100119.09;4803168;28;112992;-61
2021/04/11 06:26:07;;;;;;;28.20;24.73;;;;;;;13.02;66.63;100122.94;4835497;28;99232;-63
2021/04/11 06:28:53;;;;;;;28.10;25.10;;;;;;;13.29;66.05;100130.44;4803853;28;119121;-61
2021/04/11 06:31:30;;;;;;;27.38;24.58;;;;;;;13.49;65.18;100127.41;4832821;28;98380;-63
2021/04/11 06:34:03;;;;;;;26.60;23.80;;;;;;;13.67;64.43;100116.84;4831575;28;114869;-61
2021/04/11 06:36:38;;;;;;;25.15;22.00;;;;;;;13.87;63.36;100127.34;4804678;28;97887;-63
2021/04/11 06:39:24;;;;;;;23.63;21.15;;;;;;;14.15;62.47;100122.78;4826167;28;99231;-61
2021/04/11 06:42:37;;;;;;;22.88;20.48;;;;;;;14.55;61.02;100109.56;4802743;28;98176;-63
2021/04/11 06:45:18;;;;;;;22.10;19.63;;;;;;;14.74;60.21;100114.91;4820464;28;98059;-63
2021/04/11 06:48:05;;;;;;;21.20;18.95;;;;;;;14.98;61.17;100112.72;4802356;28;98050;-62
2021/04/11 06:51:14;;;;;;;21.88;19.50;;;;;;;15.18;62.15;100103.34;4850928;28;98645;-63
2021/04/11 06:54:09;;;;;;;21.00;18.80;;;;;;;15.27;62.78;100102.59;4838598;28;98262;-61
2021/04/11 06:56:56;;;;;;;18.45;16.65;;;;;;;15.64;62.18;100104.13;4818496;28;98094;-63
2021/04/11 06:59:37;;;;;;;17.02;15.23;;;;;;;16.13;59.51;100095.03;4821067;28;97827;-63
2021/04/11 07:03:16;;;;;;;15.13;13.55;;;;;;;16.64;58.73;100092.81;4819997;28;98391;-61
2021/04/11 07:06:14;;;;;;;14.27;12.23;;;;;;;17.07;56.41;100101.06;4860634;28;100113;-61
2021/04/11 07:09:29;;;;;;;11.57;10.40;;;;;;;17.33;54.67;100101.09;4813305;28;98144;-61
2021/04/11 07:12:31;;;;;;;10.57;9.48;;;;;;;17.58;55.54;100101.38;4820674;28;97879;-63
2021/04/11 07:15:18;;;;;;;11.63;8.98;;;;;;;17.80;54.58;100094.94;4827170;28;98514;-61
2021/04/11 07:18:20;;;;;;;9.88;8.02;;;;;;;18.14;53.22;100104.94;4832335;28;99246;-61
2021/04/11 07:21:35;;;;;;;8.53;7.47;;;;;;;18.38;53.02;100099.72;4829691;28;98348;-63
2021/04/11 07:24:22;;;;;;;8.70;6.72;;;;;;;18.40;52.91;100096.66;4826017;28;98874;-63
2021/04/11 07:27:13;;;;;;;8.45;6.72;;;;;;;18.51;52.73;100095.16;4834004;28;98850;-61
2021/04/11 07:29:51;;;;;;;7.75;5.50;;;;;;;18.69;51.63;100092.34;4824344;28;98622;-61
2021/04/11 07:32:50;;;;;;;7.05;5.53;;;;;;;19.03;50.80;100105.00;4818984;28;98360;-61
2021/04/11 07:35:48;;;;;;;5.97;4.93;;;;;;;19.55;49.54;100091.69;4818118;28;97858;-61
2021/04/11 07:38:40;;;;;;;7.20;4.30;;;;;;;19.67;49.09;100090.16;4838981;28;98737;-63
2021/04/11 07:41:32;;;;;;;5.40;4.13;;;;;;;19.78;49.32;100092.13;4833342;28;98020;-61
2021/04/11 07:44:05;;;;;;;4.43;3.40;;;;;;;20.15;48.54;100094.13;4851088;28;100451;-64
2021/04/11 07:47:18;;;;;;;6.53;3.55;;;;;;;20.41;47.39;100091.09;4817822;28;98048;-61
2021/04/11 07:50:23;;;;;;;;;;;;;;;21.62;44.94;100083.75;4839069;28;98554;-64
2021/04/11 07:53:26;;;;;;;4.22;2.88;;;;;;;21.81;45.44;100094.03;4814789;28;98038;-61
2021/04/11 07:56:06;;;;;;;4.10;2.63;;;;;;;21.79;46.35;100097.16;4805326;28;98103;-61
2021/04/11 07:59:09;;;;;;;3.35;2.65;;;;;;;22.78;44.90;100088.97;4846446;28;99034;-62
2021/04/11 08:02:14;;;;;;;4.03;2.58;;;;;;;23.12;42.84;100098.41;4818982;28;98844;-61
2021/04/11 08:05:08;;;;;;;3.75;2.28;;;;;;;22.60;42.94;100096.00;4819821;28;99349;-62
2021/04/11 08:08:10;;;;;;;3.25;2.20;;;;;;;22.24;44.75;100093.25;4818367;28;98151;-64
2021/04/11 08:10:55;;;;;;;2.80;1.93;;;;;;;22.04;45.81;100088.75;4814689;28;98319;-62
2021/04/11 08:13:43;;;;;;;2.75;2.10;;;;;;;22.30;43.71;100093.75;4819254;28;98979;-64
2021/04/11 08:16:58;;;;;;;3.88;2.10;;;;;;;22.70;43.64;100093.53;4817736;28;99116;-62
2021/04/11 08:20:14;;;;;;;3.20;1.88;;;;;;;25.32;37.93;100066.66;4821465;28;98185;-62
2021/04/11 08:23:27;;;;;;;3.15;1.80;;;;;;;26.05;36.39;100075.28;4815845;28;98992;-64
2021/04/11 08:26:30;;;;;;;2.75;1.70;;;;;;;27.32;35.38;100078.50;4824979;28;98689;-64
2021/04/11 08:29:20;;;;;;;2.40;1.60;;;;;;;26.98;35.00;100075.16;4815703;28;99166;-65
2021/04/11 08:32:38;;;;;;;2.90;1.60;;;;;;;29.41;30.62;100067.69;4831196;28;118097;-62
2021/04/11 08:35:57;;;;;;;3.83;1.70;;;;;;;30.63;28.21;100067.56;4819147;28;99045;-62
2021/04/11 08:38:42;;;;;;;2.20;1.25;;;;;;;31.28;28.12;100065.63;4858972;28;98274;-60
2021/04/11 08:41:26;;;;;;;2.78;1.52;;;;;;;32.36;26.19;100066.81;4816383;28;98327;-64
2021/04/11 08:44:50;;;;;;;1.75;1.38;;;;;;;34.03;25.45;100059.75;4825780;28;97977;-63
2021/04/11 08:47:45;;;;;;;1.85;1.10;;;;;;;33.43;26.32;100047.94;4829157;28;97746;-60
2021/04/11 08:50:19;;;;;;;1.80;1.30;;;;;;;35.25;24.33;100045.25;4812898;28;98362;-60
2021/04/11 08:53:40;;;;;;;2.75;1.33;;;;;;;37.19;22.74;100043.09;4821746;28;98911;-63
2021/04/11 08:56:28;;;;;;;3.28;1.25;;;;;;;38.08;20.92;100056.38;4819903;28;98000;-63
2021/04/11 08:59:24;;;;;;;1.65;0.93;;;;;;;35.85;23.14;100046.19;4862907;28;98001;-60
2021/04/11 09:02:30;;;;;;;2.08;1.08;;;;;;;34.44;25.55;100039.50;4819008;28;98489;-63
2021/04/11 09:05:29;;;;;;;3.53;1.08;;;;;;;34.13;25.47;100036.34;4834206;28;102171;-63
2021/04/11 09:08:25;;;;;;;2.05;1.33;;;;;;;34.47;24.66;100035.06;4825743;28;98501;-60
2021/04/11 09:11:23;;;;;;;2.15;1.00;;;;;;;32.59;28.09;100024.19;4820810;28;97869;-60
2021/04/11 09:14:31;;;;;;;2.53;1.30;;;;;;;35.07;25.29;100020.59;4823110;28;98236;-62
2021/04/11 09:17:38;;;;;;;1.75;1.35;;;;;;;36.69;23.73;100028.88;4835976;28;99636;-63
2021/04/11 09:20:28;;;;;;;3.25;1.58;;;;;;;34.61;23.44;100031.09;4838553;28;99183;-63
2021/04/11 09:23:22;;;;;;;2.55;1.50;;;;;;;32.55;19.93;100015.09;4834780;28;97849;-63
2021/04/11 09:26:19;;;;;;;2.97;1.85;;;;;;;31.99;20.61;100012.88;4818438;28;98561;-60
2021/04/11 09:29:04;;;;;;;2.65;1.65;;;;;;;33.00;20.09;100012.59;4854887;28;98667;-64
2021/04/11 09:31:31;;;;;;;3.30;1.88;;;;;;;33.67;19.46;100021.47;4834080;28;98076;-64
2021/04/11 09:34:13;;;;;;;3.78;1.67;;;;;;;34.18;17.61;100021.81;4856668;28;97917;-64
2021/04/11 09:36:55;;;;;;;2.92;1.95;;;;;;;34.11;16.79;100021.22;4834571;28;102024;-64
2021/04/11 09:39:46;;;;;;;3.05;1.95;;;;;;;33.88;16.60;100020.19;4822562;28;98156;-61
2021/04/11 09:42:24;;;;;;;;;;;;;;;34.68;15.57;100011.31;4818925;28;98341;-64
2021/04/11 09:45:19;;;;;;;5.15;3.65;;;;;;;34.12;16.08;100017.22;4819465;28;97882;-64
2021/04/11 09:48:57;;;;;;;12.93;8.50;;;;;;;34.20;16.06;100013.78;4828472;28;98163;-61
2021/04/11 09:52:01;;;;;;;9.75;4.68;;;;;;;34.00;15.91;100003.97;4829423;28;98465;-61
2021/04/11 09:54:44;;;;;;;7.13;4.28;;;;;;;34.70;15.46;100000.44;4813735;28;98348;-61
2021/04/11 09:58:05;;;;;;;6.28;2.90;;;;;;;35.69;15.05;100000.69;4833742;28;98203;-64
2021/04/11 10:01:23;;;;;;;4.63;2.60;;;;;;;35.23;15.43;99997.31;4817273;28;98612;-65
2021/04/11 10:04:19;;;;;;;3.97;1.92;;;;;;;35.64;15.17;99988.78;4871357;28;99457;-64
2021/04/11 10:07:17;;;;;;;3.58;2.15;;;;;;;34.98;15.78;99990.44;4833302;28;98128;-65
2021/04/11 10:10:07;;;;;;;4.05;2.28;;;;;;;35.13;15.58;99985.22;4845091;28;98311;-64
2021/04/11 10:13:22;;;;;;;3.17;1.97;;;;;;;35.97;14.82;99977.31;4806101;28;98783;-61
2021/04/11 10:16:22;;;;;;;2.88;2.08;;;;;;;36.58;14.97;99978.75;4830486;28;98650;-61
2021/04/11 10:19:20;;;;;;;3.63;2.20;;;;;;;35.69;14.51;99983.88;4820957;28;98977;-61
2021/04/11 10:22:14;;;;;;;4.78;2.47;;;;;;;35.90;15.02;99977.53;4832043;28;97809;-64
2021/04/11 10:25:15;;;;;;;3.10;2.30;;;;;;;35.88;14.10;99980.81;4855522;28;98732;-61
2021/04/11 10:28:19;;;;;;;3.85;2.00;;;;;;;36.97;14.41;99964.50;4820615;28;98459;-64
2021/04/11 10:30:52;;;;;;;3.97;2.00;;;;;;;36.85;14.40;99968.94;4839491;28;98201;-64
2021/04/11 10:33:24;;;;;;;3.30;2.00;;;;;;;35.99;14.83;99976.88;4803926;28;114332;-61
2021/04/11 10:36:04;;;;;;;3.03;2.10;;;;;;;36.48;14.20;99965.16;4833883;28;101753;-61
2021/04/11 10:38:48;;;;;;;3.25;2.08;;;;;;;35.32;14.98;99966.63;4803465;28;99231;-64
2021/04/11 10:41:33;;;;;;;3.70;2.10;;;;;;;35.27;14.72;99956.78;4803154;28;120453;-61
2021/04/11 10:44:24;;;;;;;3.40;2.15;;;;;;;34.52;15.62;99959.00;4808377;28;97947;-64
2021/04/11 10:47:31;;;;;;;3.45;2.17;;;;;;;36.38;14.50;99953.81;4832015;28;98310;-61
2021/04/11 10:50:15;;;;;;;4.10;1.90;;;;;;;35.39;14.82;99955.19;4815228;28;98548;-61
2021/04/11 10:53:01;;;;;;;3.63;2.00;;;;;;;36.01;14.82;99954.78;4819479;28;98717;-61
2021/04/11 10:55:44;;;;;;;4.30;2.00;;;;;;;35.29;15.09;99951.53;4825797;28;97987;-61
2021/04/11 10:58:59;;;;;;;4.22;2.10;;;;;;;34.32;15.97;99947.19;4850718;28;98644;-60
2021/04/11 11:01:48;;;;;;;3.22;2.30;;;;;;;34.44;15.97;99947.22;4829042;28;98415;-60
2021/04/11 11:05:30;;;;;;;4.43;2.20;;;;;;;34.17;16.29;99939.19;4852002;28;98366;-64
2021/04/11 11:08:14;;;;;;;4.20;2.00;;;;;;;33.48;16.98;99935.75;4814782;28;98017;-60
2021/04/11 11:11:11;;;;;;;3.35;1.77;;;;;;;32.92;17.62;99939.38;4816312;28;98558;-60
2021/04/11 11:14:06;;;;;;;4.00;2.00;;;;;;;32.52;18.20;99937.88;4820263;28;99497;-60
2021/04/11 11:17:08;;;;;;;3.90;1.70;;;;;;;33.50;16.65;99938.91;4831930;28;98348;-60
2021/04/11 11:20:17;;;;;;;2.55;1.88;;;;;;;33.59;17.54;99939.06;4834364;28;98226;-60
2021/04/11 11:23:23;;;;;;;2.60;2.00;;;;;;;33.92;16.66;99948.22;4833215;28;98424;-64
2021/04/11 11:26:36;;;;;;;4.47;2.15;;;;;;;33.89;16.26;99939.94;4816056;28;98379;-61
2021/04/11 11:29:35;;;;;;;2.47;1.70;;;;;;;34.08;16.56;99943.84;4819257;28;98314;-61
2021/04/11 11:32:10;;;;;;;3.30;1.63;;;;;;;33.28;16.75;99940.59;4834549;28;98033;-61
2021/04/11 11:34:55;;;;;;;2.80;2.10;;;;;;;32.57;17.53;99952.09;4802084;28;98496;-64
2021/04/11 11:37:58;;;;;;;2.70;1.98;;;;;;;31.87;18.49;99938.28;3965534;28;10000726;-60
2021/04/11 11:40:41;;;;;;;3.55;2.03;;;;;;;31.64;18.86;99927.94;4809219;28;98999;-64
2021/04/11 11:43:47;;;;;;;2.95;1.65;;;;;;;31.65;18.53;99937.84;4817301;28;98865;-60
2021/04/11 11:46:55;;;;;;;3.28;1.50;;;;;;;31.64;18.94;99933.50;4817850;28;98152;-64
2021/04/11 11:49:47;;;;;;;3.13;1.73;;;;;;;31.50;19.90;99934.50;4872531;28;98063;-60
2021/04/11 11:52:27;;;;;;;2.80;1.80;;;;;;;31.66;18.89;99928.28;4818785;28;99343;-60
2021/04/11 11:55:38;;;;;;;2.28;1.60;;;;;;;31.35;19.35;99924.81;4840913;28;115457;-60
2021/04/11 11:58:20;;;;;;;3.30;1.70;;;;;;;31.68;18.78;99923.09;4816504;28;98111;-64
2021/04/11 12:01:00;;;;;;;3.00;1.80;;;;;;;31.30;19.41;99926.06;4822836;28;98123;-60
2021/04/11 12:03:44;;;;;;;2.58;1.80;;;;;;;31.25;19.75;99926.53;4823375;28;116443;-60
2021/04/11 12:06:29;;;;;;;4.05;1.70;;;;;;;31.63;19.47;99929.91;4837859;28;125984;-60
2021/04/11 12:09:41;;;;;;;4.85;1.85;;;;;;;31.42;20.14;99928.25;4830410;28;98075;-60
2021/04/11 12:12:33;;;;;;;3.33;1.88;;;;;;;31.38;19.43;99930.31;4812528;28;100123;-63
2021/04/11 12:15:21;;;;;;;2.72;1.50;;;;;;;31.27;19.03;99927.66;4823540;28;98609;-63
2021/04/11 12:17:53;;;;;;;4.50;1.70;;;;;;;31.40;19.36;99921.53;4798649;28;107423;-63
2021/04/11 12:20:23;;;;;;;3.47;1.60;;;;;;;31.70;19.56;99929.78;4858520;28;98551;-60
2021/04/11 12:23:14;;;;;;;2.38;1.52;;;;;;;31.53;18.93;99916.97;4822232;28;97952;-60
2021/04/11 12:25:40;;;;;;;3.70;1.93;;;;;;;30.70;19.54;99913.78;4820495;28;98580;-60
2021/04/11 12:28:18;;;;;;;4.65;2.17;;;;;;;30.63;19.86;99911.88;4804377;28;98257;-64
2021/04/11 12:30:44;;;;;;;2.88;1.58;;;;;;;31.04;19.33;99897.00;4821537;28;98187;-64
2021/04/11 12:33:53;;;;;;;4.72;1.77;;;;;;;30.77;20.12;99908.94;4827207;28;98657;-60